createdAt,value
2019-02-04T00:01:29.125Z,12.20
2019-02-04T00:03:59.174Z,8.60
2019-02-04T00:06:29.225Z,11.00
2019-02-04T00:08:59.334Z,10.90
2019-02-04T00:11:29.387Z,12.90
2019-02-04T00:13:59.435Z,7.80
2019-02-04T00:16:40.353Z,11.63
2019-02-04T00:19:21.070Z,16.63
2019-02-04T00:21:51.147Z,10.30
2019-02-04T00:24:21.229Z,14.47
2019-02-04T00:26:52.009Z,11.83
2019-02-04T00:29:22.484Z,10.13
2019-02-04T00:31:52.556Z,13.63
2019-02-04T00:34:22.618Z,16.10
2019-02-04T00:36:53.642Z,13.43
2019-02-04T00:39:23.972Z,14.00
2019-02-04T00:41:54.046Z,13.60
2019-02-04T00:44:24.099Z,14.83
2019-02-04T00:46:54.156Z,12.27
2019-02-04T00:49:24.219Z,11.93
2019-02-04T00:51:54.272Z,9.60
2019-02-04T00:54:24.339Z,11.57
2019-02-04T00:56:54.396Z,11.60
2019-02-04T00:59:24.452Z,13.33
2019-02-04T01:01:54.516Z,14.43
2019-02-04T01:04:24.567Z,16.47
2019-02-04T01:06:56.533Z,14.70
2019-02-04T01:09:26.595Z,13.10
2019-02-04T01:11:56.659Z,17.37
2019-02-04T01:14:26.725Z,12.03
2019-02-04T01:17:03.311Z,18.30
2019-02-04T01:19:28.556Z,16.60
2019-02-04T01:21:58.628Z,12.30
2019-02-04T01:24:28.673Z,15.77
2019-02-04T01:27:07.834Z,18.73
2019-02-04T01:29:37.900Z,15.10
2019-02-04T01:32:07.962Z,23.40
2019-02-04T01:34:38.024Z,13.03
2019-02-04T01:37:08.093Z,14.90
2019-02-04T01:39:38.150Z,16.47
2019-02-04T01:42:08.209Z,17.77
2019-02-04T01:44:38.660Z,14.90
2019-02-04T01:47:14.642Z,14.70
2019-02-04T01:49:40.472Z,14.10
2019-02-04T01:52:10.539Z,17.57
2019-02-04T01:54:40.590Z,13.07
2019-02-04T01:57:10.655Z,13.70
2019-02-04T01:59:40.734Z,13.03
2019-02-04T02:02:10.797Z,17.33
2019-02-04T02:04:40.854Z,15.77
2019-02-04T02:07:10.910Z,13.80
2019-02-04T02:09:40.961Z,14.63
2019-02-04T02:12:11.102Z,14.23
2019-02-04T02:14:41.151Z,14.80
2019-02-04T02:17:11.221Z,12.53
2019-02-04T02:19:41.292Z,15.30
2019-02-04T02:22:11.350Z,13.63
2019-02-04T02:24:41.576Z,14.67
2019-02-04T02:27:11.641Z,17.57
2019-02-04T02:29:41.698Z,15.70
2019-02-04T02:32:12.227Z,17.90
2019-02-04T02:34:42.278Z,12.00
2019-02-04T02:37:12.344Z,15.60
2019-02-04T02:39:42.516Z,14.43
2019-02-04T02:42:12.557Z,16.73
2019-02-04T02:44:42.732Z,11.83
2019-02-04T02:47:12.781Z,12.87
2019-02-04T02:49:42.854Z,13.03
2019-02-04T02:52:13.299Z,16.60
2019-02-04T02:54:43.360Z,17.57
2019-02-04T02:57:13.436Z,15.93
2019-02-04T02:59:43.497Z,14.07
2019-02-04T03:02:13.567Z,15.47
2019-02-04T03:04:43.866Z,23.07
2019-02-04T03:07:13.940Z,17.23
2019-02-04T03:09:43.984Z,16.30
2019-02-04T03:12:14.056Z,15.27
2019-02-04T03:14:44.105Z,15.23
2019-02-04T03:17:15.241Z,12.33
2019-02-04T03:19:45.671Z,17.77
2019-02-04T03:22:15.751Z,14.17
2019-02-04T03:24:45.803Z,17.13
2019-02-04T03:27:15.874Z,15.97
2019-02-04T03:29:45.950Z,14.03
2019-02-04T03:32:16.379Z,16.37
2019-02-04T03:34:46.435Z,12.47
2019-02-04T03:37:17.528Z,16.70
2019-02-04T03:39:47.534Z,15.00
2019-02-04T03:42:17.600Z,13.20
2019-02-04T03:44:47.672Z,19.10
2019-02-04T03:47:17.728Z,13.43
2019-02-04T03:49:47.801Z,12.70
2019-02-04T03:52:17.859Z,19.63
2019-02-04T03:54:48.978Z,15.27
2019-02-04T03:57:19.049Z,12.93
2019-02-04T03:59:49.115Z,12.67
2019-02-04T04:02:19.171Z,17.87
2019-02-04T04:04:49.238Z,14.20
2019-02-04T04:07:19.304Z,15.20
2019-02-04T04:09:49.373Z,13.77
2019-02-04T04:12:19.709Z,20.27
2019-02-04T04:14:49.779Z,16.73
2019-02-04T04:17:19.845Z,13.43
2019-02-04T04:19:49.917Z,13.80
2019-02-04T04:22:19.976Z,15.43
2019-02-04T04:24:50.049Z,14.07
2019-02-04T04:27:20.110Z,14.47
2019-02-04T04:29:50.191Z,15.77
2019-02-04T04:32:20.250Z,12.67
2019-02-04T04:34:50.332Z,17.20
2019-02-04T04:37:20.402Z,13.33
2019-02-04T04:39:51.151Z,15.40
2019-02-04T04:42:21.207Z,18.30
2019-02-04T04:44:52.353Z,19.30
2019-02-04T04:47:22.418Z,16.40
2019-02-04T04:49:52.495Z,14.70
2019-02-04T04:52:22.842Z,19.47
2019-02-04T04:54:53.886Z,14.63
2019-02-04T04:57:23.955Z,19.43
2019-02-04T04:59:54.035Z,15.47
2019-02-04T05:02:24.080Z,16.00
2019-02-04T05:04:54.152Z,17.50
2019-02-04T05:07:24.210Z,19.37
2019-02-04T05:09:55.258Z,18.43
2019-02-04T05:12:25.310Z,16.40
2019-02-04T05:14:55.381Z,18.03
2019-02-04T05:17:25.435Z,15.30
2019-02-04T05:20:16.719Z,17.87
2019-02-04T05:22:47.731Z,16.37
2019-02-04T05:25:17.864Z,15.73
2019-02-04T05:28:00.159Z,15.63
2019-02-04T05:30:30.225Z,16.23
2019-02-04T05:33:00.276Z,15.23
2019-02-04T05:35:30.355Z,20.97
2019-02-04T05:38:00.402Z,15.33
2019-02-04T05:40:30.868Z,16.03
2019-02-04T05:43:00.904Z,17.50
2019-02-04T05:45:31.002Z,17.47
2019-02-04T05:48:02.671Z,12.43
2019-02-04T05:50:32.746Z,14.93
2019-02-04T05:53:02.797Z,15.70
2019-02-04T05:55:32.873Z,15.43
2019-02-04T05:58:02.941Z,15.90
2019-02-04T06:00:34.638Z,12.70
2019-02-04T06:03:04.694Z,15.27
2019-02-04T06:05:34.759Z,12.33
2019-02-04T06:08:04.889Z,12.47
2019-02-04T06:10:34.963Z,14.73
2019-02-04T06:13:05.019Z,13.30
2019-02-04T06:15:41.022Z,15.53
2019-02-04T06:18:15.247Z,14.43
2019-02-04T06:20:46.234Z,12.83
2019-02-04T06:23:16.286Z,12.00
2019-02-04T06:25:46.358Z,15.57
2019-02-04T06:28:16.424Z,18.00
2019-02-04T06:30:46.496Z,14.03
2019-02-04T06:33:16.544Z,12.30
2019-02-04T06:35:46.683Z,14.73
2019-02-04T06:38:16.731Z,15.20
2019-02-04T06:40:46.801Z,12.30
2019-02-04T06:43:16.854Z,15.90
2019-02-04T06:45:47.302Z,13.13
2019-02-04T06:48:17.356Z,13.40
2019-02-04T06:50:47.427Z,14.10
2019-02-04T06:53:17.491Z,11.07
2019-02-04T06:55:47.564Z,14.33
2019-02-04T06:58:17.635Z,11.00
2019-02-04T07:00:47.766Z,14.47
2019-02-04T07:03:17.811Z,12.77
2019-02-04T07:05:47.885Z,12.97
2019-02-04T07:08:17.932Z,15.63
2019-02-04T07:10:48.023Z,14.20
2019-02-04T07:13:18.076Z,14.03
2019-02-04T07:15:48.150Z,15.70
2019-02-04T07:18:18.213Z,12.67
2019-02-04T07:20:48.282Z,12.43
2019-02-04T07:23:37.804Z,12.47
2019-02-04T07:26:07.902Z,12.37
2019-02-04T07:28:37.956Z,12.60
2019-02-04T07:31:20.551Z,14.30
2019-02-04T07:33:50.630Z,13.63
2019-02-04T07:36:20.976Z,11.57
2019-02-04T07:38:51.037Z,10.63
2019-02-04T07:41:21.119Z,11.90
2019-02-04T07:43:51.183Z,13.53
2019-02-04T07:46:21.255Z,12.10
2019-02-04T07:48:51.305Z,13.90
2019-02-04T07:51:21.361Z,15.00
2019-02-04T07:53:51.415Z,13.70
2019-02-04T07:56:21.487Z,12.63
2019-02-04T07:58:51.545Z,13.13
2019-02-04T08:01:21.616Z,9.73
2019-02-04T08:03:52.160Z,13.80
2019-02-04T08:06:22.233Z,10.27
2019-02-04T08:08:52.315Z,9.13
2019-02-04T08:11:22.355Z,11.63
2019-02-04T08:13:52.414Z,11.43
2019-02-04T08:16:22.481Z,9.93
2019-02-04T08:18:52.544Z,8.90
2019-02-04T08:21:22.608Z,10.13
2019-02-04T08:23:52.671Z,10.67
2019-02-04T08:26:22.741Z,10.13
2019-02-04T08:28:52.822Z,9.90
2019-02-04T08:31:23.159Z,9.87
2019-02-04T08:33:53.210Z,11.40
2019-02-04T08:36:23.269Z,14.50
2019-02-04T08:38:53.316Z,9.17
2019-02-04T08:41:23.392Z,12.20
2019-02-04T08:43:53.433Z,11.37
2019-02-04T08:46:23.881Z,10.53
2019-02-04T08:48:53.940Z,11.50
2019-02-04T08:51:24.033Z,10.60
2019-02-04T08:53:54.156Z,12.97
2019-02-04T08:56:24.310Z,11.53
2019-02-04T08:58:54.376Z,9.67
2019-02-04T09:01:24.801Z,10.77
2019-02-04T09:03:54.866Z,10.60
2019-02-04T09:06:24.956Z,11.20
2019-02-04T09:08:55.003Z,10.72
2019-02-04T09:11:25.070Z,8.30
2019-02-04T09:13:55.138Z,8.27
2019-02-04T09:16:25.221Z,10.25
2019-02-04T09:18:55.273Z,12.88
2019-02-04T09:21:25.340Z,9.53
2019-02-04T09:23:55.394Z,9.60
2019-02-04T09:26:25.460Z,9.00
2019-02-04T09:28:55.521Z,9.83
2019-02-04T09:31:25.575Z,7.58
2019-02-04T09:33:55.628Z,10.40
2019-02-04T09:36:25.773Z,21.57
2019-02-04T09:38:55.840Z,8.55
2019-02-04T09:41:25.946Z,8.63
2019-02-04T09:43:56.366Z,8.90
2019-02-04T09:46:26.434Z,8.70
2019-02-04T09:48:56.478Z,8.35
2019-02-04T09:51:26.539Z,8.65
2019-02-04T09:53:56.588Z,9.25
2019-02-04T09:56:26.661Z,7.78
2019-02-04T09:58:56.998Z,13.05
2019-02-04T10:01:27.077Z,8.78
2019-02-04T10:03:57.094Z,7.00
2019-02-04T10:06:27.159Z,10.10
2019-02-04T10:08:57.207Z,7.87
2019-02-04T10:11:27.269Z,8.98
2019-02-04T10:13:57.313Z,13.95
2019-02-04T10:16:27.465Z,10.40
2019-02-04T10:18:57.497Z,9.70
2019-02-04T10:21:27.525Z,9.90
2019-02-04T10:23:57.573Z,9.63
2019-02-04T10:26:27.691Z,11.20
2019-02-04T10:28:57.743Z,9.78
2019-02-04T10:31:27.757Z,8.48
2019-02-04T10:33:57.849Z,9.45
2019-02-04T10:36:27.880Z,11.55
2019-02-04T10:38:58.318Z,9.68
2019-02-04T10:41:28.420Z,12.30
2019-02-04T10:43:58.550Z,6.65
2019-02-04T10:46:28.590Z,14.23
2019-02-04T10:48:58.647Z,9.53
2019-02-04T10:51:28.698Z,11.05
2019-02-04T10:53:58.761Z,11.12
2019-02-04T10:56:28.852Z,9.43
2019-02-04T10:58:58.903Z,9.90
2019-02-04T11:01:28.929Z,13.43
2019-02-04T11:03:59.027Z,13.00
2019-02-04T11:06:29.082Z,12.55
2019-02-04T11:08:59.169Z,10.63
2019-02-04T11:11:29.254Z,10.40
2019-02-04T11:14:00.574Z,12.93
2019-02-04T11:16:30.613Z,12.15
2019-02-04T11:19:00.663Z,10.15
2019-02-04T11:21:30.757Z,10.58
2019-02-04T11:24:00.819Z,10.72
2019-02-04T11:26:30.853Z,12.28
2019-02-04T11:29:00.909Z,13.38
2019-02-04T11:31:30.971Z,11.53
2019-02-04T11:34:01.413Z,11.28
2019-02-04T11:36:31.549Z,15.80
2019-02-04T11:39:01.643Z,12.33
2019-02-04T11:41:33.323Z,10.10
2019-02-04T11:44:03.362Z,16.82
2019-02-04T11:46:33.487Z,11.90
2019-02-04T11:49:03.532Z,11.55
2019-02-04T11:51:33.592Z,11.73
2019-02-04T11:54:03.688Z,9.68
2019-02-04T11:56:33.750Z,13.00
2019-02-04T11:59:03.880Z,11.25
2019-02-04T12:01:34.217Z,12.47
2019-02-04T12:04:04.556Z,11.73
2019-02-04T12:06:34.607Z,11.18
2019-02-04T12:09:06.936Z,11.60
2019-02-04T12:11:36.995Z,12.20
2019-02-04T12:14:07.063Z,12.53
2019-02-04T12:16:37.128Z,9.28
2019-02-04T12:19:07.202Z,10.23
2019-02-04T12:21:37.257Z,9.88
2019-02-04T12:24:07.324Z,10.13
2019-02-04T12:26:37.375Z,9.98
2019-02-04T12:29:07.721Z,12.25
2019-02-04T12:31:37.815Z,11.53
2019-02-04T12:34:07.835Z,9.78
2019-02-04T12:36:37.895Z,10.05
2019-02-04T12:39:10.032Z,10.48
2019-02-04T12:41:40.109Z,11.57
2019-02-04T12:44:10.162Z,9.80
2019-02-04T12:46:40.227Z,12.65
2019-02-04T12:49:10.288Z,11.45
2019-02-04T12:51:40.348Z,10.03
2019-02-04T12:54:10.414Z,11.75
2019-02-04T12:56:40.561Z,11.75
2019-02-04T12:59:10.722Z,14.75
2019-02-04T13:01:40.766Z,10.98
2019-02-04T13:04:10.825Z,10.93
2019-02-04T13:06:40.887Z,12.93
2019-02-04T13:09:10.967Z,13.83
2019-02-04T13:11:42.961Z,12.60
2019-02-04T13:14:13.329Z,11.47
2019-02-04T13:16:43.409Z,10.63
2019-02-04T13:19:13.471Z,13.67
2019-02-04T13:21:45.637Z,12.57
2019-02-04T13:24:15.298Z,11.67
2019-02-04T13:26:45.346Z,12.87
2019-02-04T13:29:15.411Z,11.83
2019-02-04T13:31:45.468Z,12.50
2019-02-04T13:34:15.531Z,15.23
2019-02-04T13:36:45.869Z,13.67
2019-02-04T13:39:15.943Z,13.23
2019-02-04T13:41:45.991Z,11.73
2019-02-04T13:44:16.051Z,13.63
2019-02-04T13:46:46.111Z,14.13
2019-02-04T13:49:16.171Z,14.10
2019-02-04T13:51:56.854Z,14.37
2019-02-04T13:54:17.978Z,10.13
2019-02-04T13:56:48.042Z,12.10
2019-02-04T13:59:18.098Z,12.07
2019-02-04T14:01:48.161Z,11.37
2019-02-04T14:04:19.860Z,11.80
2019-02-04T14:06:49.952Z,12.53
2019-02-04T14:09:20.004Z,14.83
2019-02-04T14:11:50.063Z,14.93
2019-02-04T14:14:20.112Z,14.40
2019-02-04T14:16:50.541Z,12.33
2019-02-04T14:19:20.608Z,18.13
2019-02-04T14:21:50.658Z,12.77
2019-02-04T14:24:20.719Z,15.67
2019-02-04T14:26:50.774Z,14.30
2019-02-04T14:29:20.843Z,13.70
2019-02-04T14:31:50.909Z,13.40
2019-02-04T14:34:20.972Z,11.63
2019-02-04T14:36:51.032Z,13.40
2019-02-04T14:39:21.095Z,12.23
2019-02-04T14:41:51.137Z,15.67
2019-02-04T14:44:23.015Z,13.97
2019-02-04T14:47:03.694Z,13.90
2019-02-04T14:49:53.257Z,14.97
2019-02-04T14:53:03.980Z,13.18
2019-02-04T14:55:50.739Z,14.77
2019-02-04T14:58:28.400Z,14.47
2019-02-04T15:01:36.141Z,16.27
2019-02-04T15:04:38.101Z,16.83
2019-02-04T15:07:38.797Z,11.70
2019-02-04T15:10:34.320Z,15.23
2019-02-04T15:13:32.771Z,14.25
2019-02-04T15:16:14.557Z,15.90
2019-02-04T15:19:20.903Z,15.87
2019-02-04T15:22:32.996Z,14.07
2019-02-04T15:25:33.199Z,13.22
2019-02-04T15:28:32.068Z,17.20
2019-02-04T15:31:16.219Z,17.77
2019-02-04T15:34:12.080Z,14.20
2019-02-04T15:37:16.739Z,12.40
2019-02-04T15:40:18.184Z,13.93
2019-02-04T15:43:47.207Z,13.95
2019-02-04T15:46:30.316Z,13.78
2019-02-04T15:49:38.002Z,14.73
2019-02-04T15:52:08.060Z,16.40
2019-02-04T15:54:38.135Z,15.98
2019-02-04T15:57:08.191Z,14.40
2019-02-04T15:59:38.542Z,13.50
2019-02-04T16:02:08.610Z,12.85
2019-02-04T16:04:38.675Z,15.30
2019-02-04T16:07:09.000Z,15.65
2019-02-04T16:09:39.080Z,14.17
2019-02-04T16:12:10.217Z,15.83
2019-02-04T16:14:40.363Z,15.00
2019-02-04T16:17:10.499Z,13.80
2019-02-04T16:19:41.594Z,15.73
2019-02-04T16:22:11.647Z,16.67
2019-02-04T16:24:41.726Z,14.93
2019-02-04T16:27:15.083Z,16.65
2019-02-04T16:29:45.968Z,15.77
2019-02-04T16:32:16.029Z,14.20
2019-02-04T16:34:46.131Z,15.60
2019-02-04T16:37:16.164Z,14.23
2019-02-04T16:39:47.313Z,14.47
2019-02-04T16:42:17.376Z,13.18
2019-02-04T16:44:47.448Z,17.70
2019-02-04T16:47:17.518Z,12.00
2019-02-04T16:49:47.593Z,12.58
2019-02-04T16:52:17.649Z,13.13
2019-02-04T16:54:47.900Z,11.85
2019-02-04T16:57:17.957Z,10.43
2019-02-04T16:59:48.049Z,17.70
2019-02-04T17:02:18.107Z,10.63
2019-02-04T17:04:48.274Z,12.45
2019-02-04T17:07:18.342Z,14.03
2019-02-04T17:09:48.430Z,13.83
2019-02-04T17:12:18.480Z,15.48
2019-02-04T17:14:48.567Z,12.47
2019-02-04T17:17:18.610Z,13.15
2019-02-04T17:19:48.696Z,11.78
2019-02-04T17:22:19.133Z,14.10
2019-02-04T17:24:49.235Z,12.65
2019-02-04T17:27:19.294Z,13.32
2019-02-04T17:29:49.363Z,14.47
2019-02-04T17:32:19.428Z,15.38
2019-02-04T17:34:49.508Z,12.93
2019-02-04T17:37:19.616Z,15.80
2019-02-04T17:39:49.721Z,13.62
2019-02-04T17:42:19.791Z,15.23
2019-02-04T17:44:49.872Z,15.83
2019-02-04T17:47:19.937Z,16.35
2019-02-04T17:49:50.393Z,15.48
2019-02-04T17:52:20.728Z,13.30
2019-02-04T17:54:50.807Z,12.63
2019-02-04T17:57:20.866Z,15.25
2019-02-04T17:59:50.942Z,15.00
2019-02-04T18:02:21.084Z,13.88
2019-02-04T18:04:51.456Z,17.82
2019-02-04T18:07:21.514Z,17.20
2019-02-04T18:09:51.584Z,16.42
2019-02-04T18:12:21.644Z,15.48
2019-02-04T18:14:51.723Z,15.85
2019-02-04T18:17:22.058Z,13.70
2019-02-04T18:19:52.265Z,15.53
2019-02-04T18:22:22.350Z,13.22
2019-02-04T18:24:52.539Z,15.50
2019-02-04T18:27:22.606Z,14.50
2019-02-04T18:29:52.727Z,14.30
2019-02-04T18:32:22.794Z,14.80
2019-02-04T18:34:52.918Z,14.10
2019-02-04T18:37:23.381Z,15.80
2019-02-04T18:39:53.437Z,14.95
2019-02-04T18:42:23.493Z,14.10
2019-02-04T18:44:53.837Z,15.45
2019-02-04T18:47:23.961Z,20.72
2019-02-04T18:49:54.045Z,15.53
2019-02-04T18:52:24.115Z,14.53
2019-02-04T18:55:03.290Z,15.88
2019-02-04T18:57:34.317Z,15.13
2019-02-04T19:00:11.084Z,13.68
2019-02-04T19:02:41.145Z,15.53
2019-02-04T19:05:12.057Z,14.93
2019-02-04T19:07:42.390Z,15.08
2019-02-04T19:10:18.719Z,16.90
2019-02-04T19:12:51.633Z,19.30
2019-02-04T19:15:27.778Z,18.87
2019-02-04T19:18:02.531Z,16.35
2019-02-04T19:20:32.618Z,19.83
2019-02-04T19:23:02.786Z,18.82
2019-02-04T19:25:32.836Z,19.10
2019-02-04T19:28:02.902Z,18.85
2019-02-04T19:30:49.401Z,17.02
2019-02-04T19:33:19.475Z,19.67
2019-02-04T19:35:49.544Z,20.60
2019-02-04T19:38:19.610Z,19.87
2019-02-04T19:40:49.722Z,24.70
2019-02-04T19:43:20.078Z,22.13
2019-02-04T19:45:50.176Z,20.30
2019-02-04T19:48:20.235Z,22.00
2019-02-04T19:50:50.321Z,21.27
2019-02-04T19:53:22.695Z,20.30
2019-02-04T19:55:52.162Z,22.25
2019-02-04T19:58:22.219Z,20.95
2019-02-04T20:00:52.314Z,21.05
2019-02-04T20:03:22.367Z,24.32
2019-02-04T20:05:52.561Z,21.70
2019-02-04T20:08:22.618Z,24.65
2019-02-04T20:10:53.069Z,24.77
2019-02-04T20:13:23.130Z,23.47
2019-02-04T20:15:54.112Z,25.45
2019-02-04T20:18:24.172Z,25.62
2019-02-04T20:20:54.252Z,25.88
2019-02-04T20:23:24.313Z,26.05
2019-02-04T20:25:54.396Z,27.87
2019-02-04T20:28:24.458Z,27.48
2019-02-04T20:30:54.975Z,28.73
2019-02-04T20:33:27.699Z,26.17
2019-02-04T20:35:58.755Z,30.20
2019-02-04T20:38:29.214Z,28.73
2019-02-04T20:41:00.743Z,27.50
2019-02-04T20:43:30.777Z,31.68
2019-02-04T20:46:00.863Z,30.08
2019-02-04T20:48:31.240Z,31.80
2019-02-04T20:51:02.950Z,32.93
2019-02-04T20:53:33.010Z,32.40
2019-02-04T20:56:04.132Z,31.05
2019-02-04T20:58:34.193Z,34.25
2019-02-04T21:01:11.296Z,36.35
2019-02-04T21:03:41.352Z,32.60
2019-02-04T21:06:11.418Z,33.10
2019-02-04T21:08:45.480Z,33.73
2019-02-04T21:11:15.636Z,35.70
2019-02-04T21:13:55.752Z,32.17
2019-02-04T21:16:25.902Z,33.42
2019-02-04T21:19:01.931Z,37.45
2019-02-04T21:21:31.999Z,34.40
2019-02-04T21:24:02.065Z,35.80
2019-02-04T21:26:32.145Z,32.95
2019-02-04T21:29:02.394Z,33.50
2019-02-04T21:31:51.891Z,31.33
2019-02-04T21:34:21.957Z,35.60
2019-02-04T21:36:53.032Z,34.10
2019-02-04T21:39:23.284Z,31.82
2019-02-04T21:41:53.365Z,32.37
2019-02-04T21:44:23.422Z,31.95
2019-02-04T21:46:53.496Z,33.00
2019-02-04T21:49:23.554Z,31.35
2019-02-04T21:51:53.886Z,29.77
2019-02-04T21:54:23.948Z,31.10
2019-02-04T21:56:54.011Z,31.25
2019-02-04T21:59:24.074Z,34.15
2019-02-04T22:01:54.142Z,30.35
2019-02-04T22:04:24.362Z,31.33
2019-02-04T22:06:54.819Z,33.10
2019-02-04T22:09:25.283Z,30.95
2019-02-04T22:11:55.314Z,30.95
2019-02-04T22:14:25.391Z,29.02
2019-02-04T22:16:55.454Z,31.68
2019-02-04T22:19:25.529Z,33.25
2019-02-04T22:21:55.597Z,35.92
2019-02-04T22:24:25.671Z,31.97
2019-02-04T22:26:55.729Z,31.48
2019-02-04T22:29:25.786Z,32.67
2019-02-04T22:31:55.849Z,32.98
2019-02-04T22:34:26.292Z,30.80
2019-02-04T22:36:56.361Z,30.72
2019-02-04T22:39:26.430Z,30.55
2019-02-04T22:41:56.503Z,34.35
2019-02-04T22:44:26.561Z,30.08
2019-02-04T22:46:57.247Z,32.85
2019-02-04T22:49:27.303Z,33.23
2019-02-04T22:51:57.386Z,33.20
2019-02-04T22:54:27.465Z,30.10
2019-02-04T22:56:57.529Z,31.33
2019-02-04T22:59:27.596Z,32.33
2019-02-04T23:01:57.671Z,30.77
2019-02-04T23:04:28.009Z,33.92
2019-02-04T23:06:58.088Z,32.17
2019-02-04T23:09:28.149Z,29.65
2019-02-04T23:11:58.227Z,35.88
2019-02-04T23:14:28.286Z,35.85
2019-02-04T23:16:58.348Z,31.62
2019-02-04T23:19:29.593Z,36.80
2019-02-04T23:22:12.138Z,34.15
2019-02-04T23:24:42.219Z,34.27
2019-02-04T23:27:12.277Z,36.13
2019-02-04T23:29:42.521Z,34.73
2019-02-04T23:32:12.581Z,33.95
2019-02-04T23:34:42.649Z,33.28
2019-02-04T23:37:12.714Z,35.63
2019-02-04T23:39:42.778Z,35.48
2019-02-04T23:42:12.846Z,33.92
2019-02-04T23:44:42.906Z,34.60
2019-02-04T23:47:12.984Z,36.95
2019-02-04T23:49:43.041Z,37.53
2019-02-04T23:52:13.116Z,35.05
2019-02-04T23:54:43.201Z,35.23
2019-02-04T23:57:13.644Z,37.13
2019-02-04T23:59:43.787Z,33.13
